Time;durP1;ratioP1;P1;durP2;ratioP2;P2;SDS_P1;SDS_P2;PMS_P1;PMS_P2;Temp;Humidity;BMP_temperature;BMP_pressure;BME280_temperature;BME280_humidity;BME280_pressure;Samples;Min_cycle;Max_cycle;Signal;HPM_P1;HPM_P2
2021/08/05 00:00:09;;;;;;;6.93;2.70;;;;;;;;;;4938453;29;20766;-80
2021/08/05 00:02:34;;;;;;;6.18;2.72;;;;;;;;;;4939371;28;20785;-80
2021/08/05 00:05:00;;;;;;;4.67;2.53;;;;;;;;;;4935938;29;20023;-79
2021/08/05 00:07:25;;;;;;;4.73;2.60;;;;;;;;;;4941668;29;20282;-80
2021/08/05 00:09:50;;;;;;;5.77;2.87;;;;;;;;;;4941128;29;20777;-80
2021/08/05 00:12:15;;;;;;;3.30;2.33;;;;;;;;;;4936827;29;20023;-79
2021/08/05 00:14:42;;;;;;;5.03;2.25;;;;;;;;;;4940794;29;20267;-80
2021/08/05 00:17:07;;;;;;;6.90;2.80;;;;;;;;;;4943382;29;20482;-79
2021/08/05 00:19:33;;;;;;;5.13;2.67;;;;;;;;;;4948408;28;20055;-80
2021/08/05 00:21:58;;;;;;;8.10;3.15;;;;;;;;;;4939147;29;20031;-79
2021/08/05 00:24:23;;;;;;;3.03;2.65;;;;;;;;;;4932442;29;20032;-80
2021/08/05 00:26:49;;;;;;;6.13;2.47;;;;;;;;;;4940054;29;20384;-81
2021/08/05 00:29:14;;;;;;;5.67;2.93;;;;;;;;;;4940741;29;20030;-80
2021/08/05 00:31:39;;;;;;;3.85;2.33;;;;;;;;;;4946011;28;20067;-80
2021/08/05 00:34:05;;;;;;;7.30;3.53;;;;;;;;;;4940229;29;20103;-80
2021/08/05 00:36:30;;;;;;;7.10;2.23;;;;;;;;;;4932881;29;20384;-80
2021/08/05 00:38:55;;;;;;;8.13;2.92;;;;;;;;;;4944779;29;20761;-80
2021/08/05 00:41:20;;;;;;;5.73;2.60;;;;;;;;;;4944066;29;20020;-80
2021/08/05 00:43:46;;;;;;;3.63;2.70;;;;;;;;;;4941055;29;20326;-79
2021/08/05 00:46:11;;;;;;;4.65;2.63;;;;;;;;;;4947546;28;20055;-79
2021/08/05 00:48:36;;;;;;;5.05;2.60;;;;;;;;;;4945873;28;20027;-79
2021/08/05 00:51:02;;;;;;;6.73;2.67;;;;;;;;;;4944377;29;20024;-79
2021/08/05 00:53:28;;;;;;;3.65;2.42;;;;;;;;;;4939219;29;20302;-79
2021/08/05 00:55:53;;;;;;;5.70;2.80;;;;;;;;;;4935893;29;20495;-79
2021/08/05 00:58:18;;;;;;;5.15;2.60;;;;;;;;;;4936402;29;20031;-80
2021/08/05 01:00:46;;;;;;;4.93;2.63;;;;;;;;;;4935843;29;20031;-80
2021/08/05 01:03:17;;;;;;;5.05;2.55;;;;;;;;;;4947066;29;20603;-79
2021/08/05 01:05:46;;;;;;;4.28;2.45;;;;;;;;;;4939873;29;20023;-80
2021/08/05 01:08:16;;;;;;;5.47;2.45;;;;;;;;;;4943699;29;20027;-81
2021/08/05 01:10:44;;;;;;;4.45;2.80;;;;;;;;;;4949365;29;20130;-81
2021/08/05 01:13:13;;;;;;;3.92;2.67;;;;;;;;;;4948338;28;20051;-79
2021/08/05 01:15:38;;;;;;;3.63;2.63;;;;;;;;;;4938399;29;20081;-80
2021/08/05 01:18:08;;;;;;;3.58;2.50;;;;;;;;;;4942557;29;20027;-79
2021/08/05 01:20:34;;;;;;;4.25;2.22;;;;;;;;;;4939080;29;20521;-79
2021/08/05 01:23:02;;;;;;;8.07;2.88;;;;;;;;;;4937717;29;20051;-79
2021/08/05 01:25:27;;;;;;;4.13;2.40;;;;;;;;;;4936853;29;20095;-79
2021/08/05 01:27:53;;;;;;;4.87;2.90;;;;;;;;;;4937516;29;20598;-79
2021/08/05 01:30:19;;;;;;;6.78;2.75;;;;;;;;;;4935089;29;20678;-79
2021/08/05 01:32:45;;;;;;;3.53;2.55;;;;;;;;;;4943266;29;20026;-79
2021/08/05 01:35:10;;;;;;;5.97;2.67;;;;;;;;;;4947568;28;20041;-79
2021/08/05 01:37:36;;;;;;;6.10;3.10;;;;;;;;;;4935507;29;20024;-80
2021/08/05 01:40:02;;;;;;;4.65;2.28;;;;;;;;;;4936514;29;20063;-79
2021/08/05 01:42:29;;;;;;;7.15;2.78;;;;;;;;;;4935603;29;20031;-79
2021/08/05 01:44:55;;;;;;;6.55;2.78;;;;;;;;;;4942237;29;20118;-79
2021/08/05 01:47:21;;;;;;;4.32;2.60;;;;;;;;;;4938875;29;20210;-79
2021/08/05 01:49:48;;;;;;;8.30;2.80;;;;;;;;;;4937306;28;20048;-80
2021/08/05 01:52:14;;;;;;;10.10;3.13;;;;;;;;;;4938637;29;20036;-79
2021/08/05 01:54:39;;;;;;;4.78;2.70;;;;;;;;;;4942249;28;20023;-79
2021/08/05 01:57:05;;;;;;;3.65;2.75;;;;;;;;;;4944203;28;20110;-79
2021/08/05 01:59:30;;;;;;;6.95;3.00;;;;;;;;;;4935176;29;20039;-79
2021/08/05 02:01:56;;;;;;;3.88;2.63;;;;;;;;;;4944054;29;20020;-79
2021/08/05 02:04:41;;;;;;;4.87;2.97;;;;;;;;;;4936090;29;20090;-79
2021/08/05 02:07:06;;;;;;;3.97;2.28;;;;;;;;;;4941580;29;20491;-79
2021/08/05 02:09:32;;;;;;;5.73;2.80;;;;;;;;;;4947274;29;20028;-79
2021/08/05 02:11:58;;;;;;;6.30;2.75;;;;;;;;;;4945809;29;20322;-79
2021/08/05 02:14:24;;;;;;;6.28;3.00;;;;;;;;;;4948227;29;20528;-79
2021/08/05 02:16:50;;;;;;;4.97;3.03;;;;;;;;;;4937650;28;20114;-79
2021/08/05 02:19:16;;;;;;;4.68;2.70;;;;;;;;;;4935133;29;20044;-79
2021/08/05 02:21:42;;;;;;;6.25;2.60;;;;;;;;;;4943704;29;20027;-79
2021/08/05 02:24:08;;;;;;;4.38;2.58;;;;;;;;;;4939222;29;20078;-79
2021/08/05 02:26:34;;;;;;;6.75;2.88;;;;;;;;;;4942783;28;20027;-79
2021/08/05 02:28:59;;;;;;;4.22;2.45;;;;;;;;;;4937625;28;20028;-79
2021/08/05 02:31:25;;;;;;;4.13;2.60;;;;;;;;;;4934003;28;20556;-79
2021/08/05 02:33:51;;;;;;;5.53;2.78;;;;;;;;;;4933577;29;20020;-81
2021/08/05 02:36:16;;;;;;;5.65;2.67;;;;;;;;;;4932021;29;20060;-80
2021/08/05 02:38:41;;;;;;;3.65;2.78;;;;;;;;;;4930995;29;20023;-79
2021/08/05 02:41:08;;;;;;;3.63;2.83;;;;;;;;;;4933244;29;20024;-79
2021/08/05 02:43:34;;;;;;;7.40;2.90;;;;;;;;;;4935040;29;20378;-79
2021/08/05 02:46:00;;;;;;;6.35;3.22;;;;;;;;;;4939016;29;20027;-79
2021/08/05 02:48:26;;;;;;;4.50;2.90;;;;;;;;;;4941800;29;20031;-79
2021/08/05 02:50:53;;;;;;;3.88;2.50;;;;;;;;;;4938174;29;20015;-80
2021/08/05 02:53:18;;;;;;;4.57;2.90;;;;;;;;;;4936577;29;20434;-80
2021/08/05 02:55:44;;;;;;;5.72;2.65;;;;;;;;;;4942278;29;20047;-79
2021/08/05 02:58:10;;;;;;;4.82;2.88;;;;;;;;;;4939425;29;20091;-79
2021/08/05 03:00:35;;;;;;;4.93;2.78;;;;;;;;;;4934417;29;20028;-78
2021/08/05 03:03:01;;;;;;;4.65;2.92;;;;;;;;;;4937153;29;20502;-78
2021/08/05 03:05:26;;;;;;;3.55;2.90;;;;;;;;;;4943362;28;20023;-78
2021/08/05 03:07:52;;;;;;;5.38;3.08;;;;;;;;;;4938864;29;20028;-79
2021/08/05 03:10:17;;;;;;;5.22;3.22;;;;;;;;;;4941180;28;20471;-79
2021/08/05 03:12:43;;;;;;;4.07;2.77;;;;;;;;;;4941457;29;20019;-79
2021/08/05 03:15:09;;;;;;;7.68;2.90;;;;;;;;;;4934347;29;20275;-80
2021/08/05 03:17:34;;;;;;;5.75;3.08;;;;;;;;;;4944138;29;20019;-79
2021/08/05 03:20:00;;;;;;;4.65;2.80;;;;;;;;;;4943368;28;20024;-80
2021/08/05 03:22:25;;;;;;;5.25;3.00;;;;;;;;;;4938705;29;20032;-80
2021/08/05 03:24:50;;;;;;;5.10;2.90;;;;;;;;;;4944410;29;20371;-79
2021/08/05 03:27:16;;;;;;;4.68;2.67;;;;;;;;;;4945596;29;20713;-79
2021/08/05 03:29:41;;;;;;;4.32;2.92;;;;;;;;;;4935172;29;20053;-79
2021/08/05 03:32:07;;;;;;;8.27;2.70;;;;;;;;;;4934821;29;20068;-79
2021/08/05 03:34:32;;;;;;;7.38;2.78;;;;;;;;;;4942161;29;20305;-80
2021/08/05 03:36:57;;;;;;;6.10;2.83;;;;;;;;;;4939398;29;20022;-80
2021/08/05 03:39:22;;;;;;;4.93;2.50;;;;;;;;;;4939552;29;20268;-81
2021/08/05 03:41:47;;;;;;;5.27;3.20;;;;;;;;;;4939647;29;20271;-79
2021/08/05 03:44:13;;;;;;;5.77;3.20;;;;;;;;;;4933463;29;20271;-79
2021/08/05 03:46:38;;;;;;;4.35;3.15;;;;;;;;;;4933721;29;20263;-80
2021/08/05 03:49:03;;;;;;;8.82;4.15;;;;;;;;;;4940364;29;20045;-80
2021/08/05 03:51:29;;;;;;;6.90;2.80;;;;;;;;;;4943241;28;20119;-80
2021/08/05 03:53:54;;;;;;;7.50;2.87;;;;;;;;;;4946022;29;20106;-80
2021/08/05 03:56:19;;;;;;;7.20;3.00;;;;;;;;;;4934176;29;20058;-79
2021/08/05 03:58:45;;;;;;;6.90;3.50;;;;;;;;;;4936641;28;20247;-80
2021/08/05 04:01:10;;;;;;;3.80;3.00;;;;;;;;;;4939821;29;20042;-79
2021/08/05 04:03:35;;;;;;;5.90;3.28;;;;;;;;;;4933105;29;20259;-79
2021/08/05 04:06:01;;;;;;;6.18;3.03;;;;;;;;;;4933466;29;20040;-79
2021/08/05 04:08:26;;;;;;;4.60;2.97;;;;;;;;;;4940717;29;20024;-79
2021/08/05 04:10:51;;;;;;;9.65;3.85;;;;;;;;;;4948007;28;20111;-79
2021/08/05 04:13:18;;;;;;;6.50;3.30;;;;;;;;;;4937703;29;20058;-81
2021/08/05 04:15:43;;;;;;;5.32;3.13;;;;;;;;;;4943409;28;20455;-79
2021/08/05 04:18:09;;;;;;;7.57;3.50;;;;;;;;;;4934350;29;20091;-80
2021/08/05 04:20:34;;;;;;;8.70;2.65;;;;;;;;;;4934218;28;20039;-80
2021/08/05 04:23:00;;;;;;;5.75;3.00;;;;;;;;;;4934735;29;20479;-79
2021/08/05 04:25:26;;;;;;;7.55;3.30;;;;;;;;;;4932866;29;20386;-80
2021/08/05 04:27:51;;;;;;;5.15;3.38;;;;;;;;;;4935881;29;20023;-80
2021/08/05 04:30:16;;;;;;;11.97;3.07;;;;;;;;;;4934211;29;20024;-80
2021/08/05 04:32:42;;;;;;;4.60;2.60;;;;;;;;;;4938189;29;20330;-79
2021/08/05 04:35:08;;;;;;;6.43;3.22;;;;;;;;;;4946226;28;20271;-80
2021/08/05 04:37:34;;;;;;;5.78;3.10;;;;;;;;;;4932522;29;20403;-80
2021/08/05 04:39:59;;;;;;;6.20;3.20;;;;;;;;;;4938479;29;20066;-79
2021/08/05 04:42:24;;;;;;;8.17;3.50;;;;;;;;;;4934633;29;20038;-79
2021/08/05 04:44:49;;;;;;;9.10;3.93;;;;;;;;;;4932893;29;20793;-80
2021/08/05 04:47:14;;;;;;;7.47;3.53;;;;;;;;;;4937262;29;20758;-80
2021/08/05 04:49:42;;;;;;;6.37;3.40;;;;;;;;;;4937833;29;20259;-80
2021/08/05 04:52:07;;;;;;;10.05;3.28;;;;;;;;;;4930370;29;20267;-79
2021/08/05 04:54:34;;;;;;;7.17;3.17;;;;;;;;;;4940847;29;20509;-80
2021/08/05 04:57:00;;;;;;;5.18;3.03;;;;;;;;;;4943571;28;20462;-80
2021/08/05 04:59:25;;;;;;;7.80;3.40;;;;;;;;;;4931755;29;20027;-79
2021/08/05 05:01:50;;;;;;;6.60;3.23;;;;;;;;;;4929133;29;20028;-81
2021/08/05 05:04:16;;;;;;;6.53;3.43;;;;;;;;;;4937806;29;20765;-81
2021/08/05 05:06:41;;;;;;;7.82;3.28;;;;;;;;;;4937652;28;20031;-82
2021/08/05 05:09:06;;;;;;;5.90;3.10;;;;;;;;;;4936748;29;20024;-81
2021/08/05 05:11:31;;;;;;;8.73;3.60;;;;;;;;;;4940266;28;20271;-82
2021/08/05 05:13:57;;;;;;;5.83;3.93;;;;;;;;;;4938378;29;20290;-81
2021/08/05 05:16:22;;;;;;;5.70;3.63;;;;;;;;;;4939955;28;20271;-82
2021/08/05 05:18:47;;;;;;;7.78;3.35;;;;;;;;;;4938904;29;20039;-82
2021/08/05 05:21:13;;;;;;;5.33;3.63;;;;;;;;;;4941946;29;20114;-81
2021/08/05 05:23:38;;;;;;;4.43;3.40;;;;;;;;;;4940618;29;20267;-82
2021/08/05 05:26:03;;;;;;;12.00;3.80;;;;;;;;;;4936096;29;20263;-81
2021/08/05 05:28:30;;;;;;;7.03;3.50;;;;;;;;;;4935910;29;20154;-80
2021/08/05 05:30:55;;;;;;;6.15;3.55;;;;;;;;;;4939581;29;20046;-82
2021/08/05 05:33:21;;;;;;;7.72;3.80;;;;;;;;;;4939860;28;20443;-81
2021/08/05 05:35:46;;;;;;;7.50;3.53;;;;;;;;;;4938247;29;20040;-80
2021/08/05 05:38:12;;;;;;;7.55;4.47;;;;;;;;;;4936276;29;20130;-81
2021/08/05 05:40:38;;;;;;;11.23;4.03;;;;;;;;;;4937296;28;20027;-80
2021/08/05 05:43:04;;;;;;;5.47;3.90;;;;;;;;;;4939320;28;20668;-80
2021/08/05 05:45:30;;;;;;;9.98;4.20;;;;;;;;;;4934318;29;20379;-82
2021/08/05 05:47:55;;;;;;;8.38;3.75;;;;;;;;;;4941445;29;20036;-82
2021/08/05 05:50:20;;;;;;;5.70;3.90;;;;;;;;;;4944766;28;20039;-82
2021/08/05 05:52:47;;;;;;;6.43;3.90;;;;;;;;;;4926975;29;20074;-82
2021/08/05 05:55:13;;;;;;;6.50;3.42;;;;;;;;;;4932337;29;20741;-82
2021/08/05 05:57:38;;;;;;;9.07;4.35;;;;;;;;;;4931174;29;20043;-80
2021/08/05 06:00:05;;;;;;;8.50;3.90;;;;;;;;;;4928966;29;20616;-79
2021/08/05 06:02:30;;;;;;;7.93;3.28;;;;;;;;;;4930629;28;20087;-79
2021/08/05 06:04:55;;;;;;;4.85;3.05;;;;;;;;;;4928920;28;20532;-79
2021/08/05 06:07:21;;;;;;;6.65;3.47;;;;;;;;;;4930077;29;20090;-80
2021/08/05 06:09:46;;;;;;;7.13;3.03;;;;;;;;;;4931210;29;20020;-79
2021/08/05 06:12:11;;;;;;;6.00;2.80;;;;;;;;;;4926584;29;20753;-81
2021/08/05 06:14:36;;;;;;;5.85;3.00;;;;;;;;;;4929119;29;20022;-80
2021/08/05 06:17:02;;;;;;;5.97;3.67;;;;;;;;;;4927825;29;20453;-80
2021/08/05 06:19:27;;;;;;;8.93;3.13;;;;;;;;;;4929541;29;20667;-81
2021/08/05 06:21:52;;;;;;;7.13;3.23;;;;;;;;;;4933088;29;20492;-82
2021/08/05 06:24:17;;;;;;;7.47;4.90;;;;;;;;;;4928029;29;20825;-80
2021/08/05 06:26:43;;;;;;;13.17;6.60;;;;;;;;;;4920410;29;20291;-81
2021/08/05 06:29:09;;;;;;;10.57;5.80;;;;;;;;;;4929648;29;20059;-81
2021/08/05 06:31:35;;;;;;;8.18;4.03;;;;;;;;;;4923893;29;20031;-82
2021/08/05 06:34:04;;;;;;;10.98;2.78;;;;;;;;;;4911512;29;20510;-81
2021/08/05 06:36:29;;;;;;;7.72;3.30;;;;;;;;;;4932622;29;20387;-83
2021/08/05 06:38:55;;;;;;;6.40;3.30;;;;;;;;;;4938829;29;20027;-83
2021/08/05 06:41:20;;;;;;;7.33;2.83;;;;;;;;;;4940393;29;20098;-84
2021/08/05 06:43:46;;;;;;;6.97;2.97;;;;;;;;;;4944169;29;20287;-83
2021/08/05 06:46:11;;;;;;;5.87;3.70;;;;;;;;;;4934127;29;20082;-84
2021/08/05 06:48:36;;;;;;;7.45;3.15;;;;;;;;;;4948400;29;20106;-82
2021/08/05 06:51:01;;;;;;;4.35;2.83;;;;;;;;;;4929854;29;20663;-83
2021/08/05 06:53:27;;;;;;;7.35;2.83;;;;;;;;;;4937944;29;20023;-82
2021/08/05 06:55:52;;;;;;;26.45;22.13;;;;;;;;;;4933553;29;20039;-84
2021/08/05 06:58:20;;;;;;;8.23;4.85;;;;;;;;;;4934590;29;20122;-82
2021/08/05 07:00:48;;;;;;;5.95;2.72;;;;;;;;;;4938499;29;20025;-81
2021/08/05 07:03:13;;;;;;;4.40;2.58;;;;;;;;;;4935027;28;20084;-82
2021/08/05 07:05:39;;;;;;;3.33;2.60;;;;;;;;;;4937623;29;20450;-82
2021/08/05 07:08:04;;;;;;;4.88;2.63;;;;;;;;;;4930603;29;20263;-83
2021/08/05 07:10:29;;;;;;;4.43;2.95;;;;;;;;;;4934032;29;20027;-83
2021/08/05 07:12:55;;;;;;;5.88;2.33;;;;;;;;;;4932580;29;20145;-83
2021/08/05 07:15:20;;;;;;;7.57;2.67;;;;;;;;;;4932829;29;20444;-82
2021/08/05 07:17:45;;;;;;;4.68;2.65;;;;;;;;;;4934318;29;20027;-82
2021/08/05 07:20:11;;;;;;;5.00;3.05;;;;;;;;;;4933768;29;20094;-82
2021/08/05 07:22:38;;;;;;;4.70;2.60;;;;;;;;;;4936736;29;20443;-81
2021/08/05 07:25:04;;;;;;;7.13;3.00;;;;;;;;;;4935413;28;20043;-79
2021/08/05 07:27:36;;;;;;;4.95;3.03;;;;;;;;;;4932691;29;20367;-79
2021/08/05 07:30:06;;;;;;;4.40;2.63;;;;;;;;;;4929078;29;21655;-80
2021/08/05 07:32:31;;;;;;;2.80;2.50;;;;;;;;;;4933827;29;20682;-82
2021/08/05 07:35:06;;;;;;;4.97;2.60;;;;;;;;;;4930733;29;20435;-81
2021/08/05 07:37:34;;;;;;;5.47;3.50;;;;;;;;;;4924557;29;20134;-80
2021/08/05 07:40:00;;;;;;;12.32;9.07;;;;;;;;;;4928627;29;20786;-81
2021/08/05 07:42:26;;;;;;;8.88;4.88;;;;;;;;;;4929901;29;20596;-81
2021/08/05 07:44:53;;;;;;;3.38;2.42;;;;;;;;;;4927203;29;21459;-81
2021/08/05 07:47:18;;;;;;;6.00;3.28;;;;;;;;;;4931320;29;20043;-82
2021/08/05 07:49:52;;;;;;;4.53;2.85;;;;;;;;;;4933578;29;20150;-82
2021/08/05 07:52:18;;;;;;;6.05;2.70;;;;;;;;;;4936308;29;20502;-81
2021/08/05 07:54:43;;;;;;;6.72;3.03;;;;;;;;;;4928329;29;20051;-82
2021/08/05 07:57:08;;;;;;;7.10;2.60;;;;;;;;;;4932351;29;20368;-82
2021/08/05 07:59:42;;;;;;;5.82;3.13;;;;;;;;;;4928071;29;20083;-82
2021/08/05 08:02:07;;;;;;;4.63;2.92;;;;;;;;;;4929276;29;20378;-82
2021/08/05 08:04:34;;;;;;;6.82;2.88;;;;;;;;;;4934533;29;20020;-82
2021/08/05 08:07:00;;;;;;;5.83;2.83;;;;;;;;;;4932859;29;20091;-83
2021/08/05 08:09:44;;;;;;;8.32;3.28;;;;;;;;;;4931455;29;20128;-80
2021/08/05 08:12:09;;;;;;;5.10;2.83;;;;;;;;;;4932771;29;20559;-83
2021/08/05 08:14:35;;;;;;;4.30;2.58;;;;;;;;;;4939872;29;20031;-82
2021/08/05 08:17:16;;;;;;;5.82;2.70;;;;;;;;;;4941558;29;20047;-84
2021/08/05 08:19:54;;;;;;;14.35;9.98;;;;;;;;;;4939559;29;20028;-83
2021/08/05 08:22:31;;;;;;;10.25;5.47;;;;;;;;;;4942499;29;20035;-82
2021/08/05 08:25:06;;;;;;;5.45;3.15;;;;;;;;;;4937169;29;20032;-83
2021/08/05 08:27:43;;;;;;;7.05;2.50;;;;;;;;;;4939372;29;20361;-82
2021/08/05 08:30:21;;;;;;;3.50;2.60;;;;;;;;;;4933843;29;20042;-81
2021/08/05 08:32:47;;;;;;;3.97;2.53;;;;;;;;;;4943935;29;20127;-81
2021/08/05 08:35:18;;;;;;;4.47;2.58;;;;;;;;;;4942166;29;20103;-84
2021/08/05 08:37:53;;;;;;;4.72;2.20;;;;;;;;;;4937383;29;20024;-83
2021/08/05 08:40:19;;;;;;;3.90;2.50;;;;;;;;;;4942020;29;20031;-82
2021/08/05 08:42:44;;;;;;;4.80;2.33;;;;;;;;;;4942206;29;20027;-84
2021/08/05 08:45:11;;;;;;;3.08;2.35;;;;;;;;;;4943126;29;20629;-83
2021/08/05 08:47:37;;;;;;;4.53;2.40;;;;;;;;;;4943082;29;20145;-82
2021/08/05 08:50:03;;;;;;;3.25;2.20;;;;;;;;;;4951666;29;20046;-82
2021/08/05 08:52:32;;;;;;;4.35;2.30;;;;;;;;;;4947525;29;20038;-83
2021/08/05 08:55:02;;;;;;;4.57;2.55;;;;;;;;;;4949795;29;20059;-84
2021/08/05 08:57:32;;;;;;;5.32;2.60;;;;;;;;;;4946241;29;20078;-83
2021/08/05 09:00:16;;;;;;;5.93;2.40;;;;;;;;;;4945959;29;20074;-82
2021/08/05 09:02:47;;;;;;;4.05;2.72;;;;;;;;;;4936245;29;20587;-82
2021/08/05 09:05:13;;;;;;;5.63;2.63;;;;;;;;;;4941877;29;20031;-83
2021/08/05 09:07:47;;;;;;;4.65;2.60;;;;;;;;;;4943434;29;20044;-83
2021/08/05 09:10:14;;;;;;;3.05;2.42;;;;;;;;;;4941960;29;20032;-81
2021/08/05 09:12:44;;;;;;;4.88;2.58;;;;;;;;;;4942278;29;20027;-84
2021/08/05 09:15:10;;;;;;;3.33;2.50;;;;;;;;;;4934744;29;20028;-83
2021/08/05 09:17:39;;;;;;;2.85;2.30;;;;;;;;;;4939619;29;20030;-83
2021/08/05 09:20:08;;;;;;;5.05;2.00;;;;;;;;;;4939104;29;20056;-84
2021/08/05 09:22:33;;;;;;;;;;;;;;;;;;4934980;29;20034;-83
2021/08/05 09:24:59;;;;;;;4.40;2.20;;;;;;;;;;4935439;29;19915;-83
2021/08/05 09:27:34;;;;;;;13.90;9.23;;;;;;;;;;4938116;29;20275;-82
2021/08/05 09:29:59;;;;;;;9.40;7.10;;;;;;;;;;4931433;29;20034;-81
2021/08/05 09:32:26;;;;;;;3.13;2.33;;;;;;;;;;4936988;29;20031;-82
2021/08/05 09:35:02;;;;;;;2.13;1.83;;;;;;;;;;4933830;29;20365;-82
2021/08/05 09:37:33;;;;;;;3.28;2.20;;;;;;;;;;4940412;29;20082;-83
2021/08/05 09:40:00;;;;;;;2.03;1.65;;;;;;;;;;4934569;29;20027;-82
2021/08/05 09:42:25;;;;;;;2.95;2.33;;;;;;;;;;4937639;28;20363;-82
2021/08/05 09:44:53;;;;;;;2.78;2.10;;;;;;;;;;4942106;28;20034;-82
2021/08/05 09:47:19;;;;;;;3.75;2.38;;;;;;;;;;4941783;29;20019;-83
2021/08/05 09:49:47;;;;;;;4.35;2.17;;;;;;;;;;4934451;29;20095;-82
2021/08/05 09:52:23;;;;;;;7.95;4.20;;;;;;;;;;4936037;29;20028;-80
2021/08/05 09:54:51;;;;;;;3.10;1.65;;;;;;;;;;4937335;29;20481;-81
2021/08/05 09:57:23;;;;;;;3.45;2.42;;;;;;;;;;4933553;29;20370;-78
2021/08/05 09:59:51;;;;;;;6.22;3.45;;;;;;;;;;4930700;29;20579;-81
2021/08/05 10:02:16;;;;;;;5.30;3.03;;;;;;;;;;4934490;29;20087;-80
2021/08/05 10:04:45;;;;;;;3.80;2.30;;;;;;;;;;4939590;29;20003;-81
2021/08/05 10:07:10;;;;;;;4.38;2.00;;;;;;;;;;4933717;29;20035;-81
2021/08/05 10:09:40;;;;;;;16.08;3.17;;;;;;;;;;4937723;29;20352;-82
2021/08/05 10:12:17;;;;;;;3.83;2.20;;;;;;;;;;4937200;29;20370;-81
2021/08/05 10:14:44;;;;;;;4.65;2.10;;;;;;;;;;4935362;29;20411;-81
2021/08/05 10:17:10;;;;;;;3.88;2.00;;;;;;;;;;4935414;29;20355;-80
2021/08/05 10:19:39;;;;;;;4.35;2.15;;;;;;;;;;4941229;29;20551;-78
2021/08/05 10:22:05;;;;;;;4.60;2.03;;;;;;;;;;4933593;29;20411;-79
2021/08/05 10:24:32;;;;;;;3.88;2.53;;;;;;;;;;4939029;29;20422;-79
2021/08/05 10:26:58;;;;;;;7.18;2.50;;;;;;;;;;4936099;29;20505;-81
2021/08/05 10:29:23;;;;;;;4.03;1.60;;;;;;;;;;4933023;29;20034;-81
2021/08/05 10:31:49;;;;;;;2.50;1.60;;;;;;;;;;4935535;29;20103;-81
2021/08/05 10:34:15;;;;;;;3.10;1.67;;;;;;;;;;4930938;29;20023;-81
2021/08/05 10:36:40;;;;;;;5.55;2.10;;;;;;;;;;4932010;29;20095;-80
2021/08/05 10:39:06;;;;;;;1.77;1.42;;;;;;;;;;4934091;28;20020;-81
2021/08/05 10:41:31;;;;;;;3.17;1.80;;;;;;;;;;4929233;29;20018;-82
2021/08/05 10:43:58;;;;;;;3.25;1.35;;;;;;;;;;4932470;29;20102;-82
2021/08/05 10:46:23;;;;;;;2.40;1.50;;;;;;;;;;4931097;29;20118;-80
2021/08/05 10:48:52;;;;;;;2.75;1.30;;;;;;;;;;4931009;29;20150;-81
2021/08/05 10:51:17;;;;;;;4.38;1.90;;;;;;;;;;4931532;29;20643;-79
2021/08/05 10:53:44;;;;;;;2.90;1.65;;;;;;;;;;4936168;29;20023;-80
2021/08/05 10:56:16;;;;;;;3.30;1.80;;;;;;;;;;4925207;29;20047;-81
2021/08/05 10:59:01;;;;;;;1.40;1.30;;;;;;;;;;4922462;29;20665;-80
2021/08/05 11:01:45;;;;;;;1.73;1.40;;;;;;;;;;4931378;29;20379;-81
2021/08/05 11:04:29;;;;;;;3.50;1.52;;;;;;;;;;4932757;29;20558;-81
2021/08/05 11:06:54;;;;;;;2.30;1.48;;;;;;;;;;4937890;29;20622;-84
2021/08/05 11:09:27;;;;;;;2.53;1.70;;;;;;;;;;4933729;29;20104;-83
2021/08/05 11:11:52;;;;;;;2.28;1.50;;;;;;;;;;4938479;29;20031;-83
2021/08/05 11:14:20;;;;;;;3.35;1.40;;;;;;;;;;4940020;29;20087;-84
2021/08/05 11:17:01;;;;;;;2.60;1.48;;;;;;;;;;4932816;29;20382;-84
2021/08/05 11:19:27;;;;;;;2.10;1.38;;;;;;;;;;4933636;29;20091;-82
2021/08/05 11:21:53;;;;;;;2.15;1.95;;;;;;;;;;4933552;29;20676;-83
2021/08/05 11:24:41;;;;;;;2.53;1.40;;;;;;;;;;4937506;29;20058;-83
2021/08/05 11:27:13;;;;;;;3.22;1.40;;;;;;;;;;4932615;29;20024;-83
2021/08/05 11:29:38;;;;;;;4.70;1.63;;;;;;;;;;4933907;29;20122;-83
2021/08/05 11:32:22;;;;;;;1.73;1.40;;;;;;;;;;4936094;29;20102;-83
2021/08/05 11:35:05;;;;;;;2.03;1.48;;;;;;;;;;4936001;29;20391;-83
2021/08/05 11:37:30;;;;;;;2.38;1.80;;;;;;;;;;4934758;28;20019;-82
2021/08/05 11:39:57;;;;;;;1.95;1.60;;;;;;;;;;4935703;29;20075;-83
2021/08/05 11:42:23;;;;;;;2.67;1.42;;;;;;;;;;4939563;28;20083;-84
2021/08/05 11:44:48;;;;;;;4.18;1.88;;;;;;;;;;4933662;29;20479;-84
2021/08/05 11:47:15;;;;;;;1.98;1.77;;;;;;;;;;4936393;28;20372;-84
2021/08/05 11:49:40;;;;;;;2.08;1.65;;;;;;;;;;4934797;29;20374;-84
2021/08/05 11:52:06;;;;;;;4.27;1.67;;;;;;;;;;4935739;29;20016;-83
2021/08/05 11:54:32;;;;;;;5.13;1.75;;;;;;;;;;4933144;29;20770;-84
2021/08/05 11:57:01;;;;;;;2.10;1.42;;;;;;;;;;4936657;28;20067;-85
2021/08/05 11:59:34;;;;;;;2.05;1.50;;;;;;;;;;4929503;29;20390;-85
2021/08/05 12:02:18;;;;;;;2.70;1.70;;;;;;;;;;4933142;29;20558;-84
2021/08/05 12:04:44;;;;;;;2.90;1.70;;;;;;;;;;4931413;29;20023;-84
2021/08/05 12:07:16;;;;;;;2.65;1.70;;;;;;;;;;4935639;29;20020;-85
2021/08/05 12:09:41;;;;;;;2.85;1.50;;;;;;;;;;4932387;29;20395;-85
2021/08/05 12:12:07;;;;;;;5.78;4.30;;;;;;;;;;4930647;29;20032;-84
2021/08/05 12:14:32;;;;;;;21.98;17.77;;;;;;;;;;4930663;29;20020;-85
2021/08/05 12:16:57;;;;;;;6.60;4.20;;;;;;;;;;4934746;29;20026;-86
2021/08/05 12:19:22;;;;;;;5.20;1.90;;;;;;;;;;4932718;29;20028;-84
2021/08/05 12:21:48;;;;;;;4.45;1.90;;;;;;;;;;4931875;29;20118;-84
2021/08/05 12:24:13;;;;;;;3.65;1.75;;;;;;;;;;4936501;29;20118;-84
2021/08/05 12:26:39;;;;;;;2.88;1.63;;;;;;;;;;4935618;29;20083;-84
2021/08/05 12:29:10;;;;;;;2.15;1.60;;;;;;;;;;4933228;29;20035;-85
2021/08/05 12:31:36;;;;;;;4.18;1.88;;;;;;;;;;4938411;28;20427;-86
2021/08/05 12:34:02;;;;;;;2.00;1.67;;;;;;;;;;4932967;28;20071;-83
2021/08/05 12:36:27;;;;;;;4.38;1.60;;;;;;;;;;4934421;29;20036;-85
2021/08/05 12:38:56;;;;;;;2.63;1.30;;;;;;;;;;4932902;29;20024;-83
2021/08/05 12:41:21;;;;;;;;;;;;;;;;;;4933122;29;20564;-83
2021/08/05 12:43:47;;;;;;;2.30;1.43;;;;;;;;;;4932439;29;19915;-83
2021/08/05 12:46:12;;;;;;;2.25;1.10;;;;;;;;;;4931301;29;20034;-84
2021/08/05 12:48:39;;;;;;;2.42;1.48;;;;;;;;;;4932367;29;20432;-86
2021/08/05 12:51:04;;;;;;;5.15;1.40;;;;;;;;;;4934128;29;20027;-84
2021/08/05 12:53:30;;;;;;;2.10;1.50;;;;;;;;;;4938845;29;20550;-85
2021/08/05 12:55:56;;;;;;;1.40;1.30;;;;;;;;;;4932915;29;20055;-85
2021/08/05 12:58:22;;;;;;;2.72;1.63;;;;;;;;;;4932134;29;20019;-84
2021/08/05 13:00:48;;;;;;;1.60;1.30;;;;;;;;;;4932146;29;20552;-84
2021/08/05 13:03:14;;;;;;;12.77;8.50;;;;;;;;;;4931712;29;20580;-84
2021/08/05 13:05:52;;;;;;;20.40;18.23;;;;;;;;;;4933878;29;20078;-84
2021/08/05 13:08:31;;;;;;;3.65;1.70;;;;;;;;;;4935301;29;20454;-84
2021/08/05 13:10:56;;;;;;;2.58;1.45;;;;;;;;;;4939637;29;20376;-83
2021/08/05 13:13:40;;;;;;;2.10;1.40;;;;;;;;;;4931143;29;20047;-83
2021/08/05 13:16:22;;;;;;;2.20;1.55;;;;;;;;;;4928371;29;20034;-82
2021/08/05 13:19:02;;;;;;;3.28;2.03;;;;;;;;;;4930269;29;20028;-83
2021/08/05 13:21:27;;;;;;;3.05;1.70;;;;;;;;;;4932534;29;20370;-83
2021/08/05 13:23:53;;;;;;;2.33;1.40;;;;;;;;;;4933513;29;20118;-83
2021/08/05 13:26:34;;;;;;;2.30;1.60;;;;;;;;;;4932625;29;20070;-84
2021/08/05 13:28:59;;;;;;;1.98;1.33;;;;;;;;;;4932119;29;20130;-83
2021/08/05 13:31:25;;;;;;;2.50;1.65;;;;;;;;;;4934003;28;20055;-86
2021/08/05 13:34:09;;;;;;;2.97;2.05;;;;;;;;;;4934661;29;20114;-83
2021/08/05 13:36:36;;;;;;;12.05;9.38;;;;;;;;;;4937682;29;20555;-82
2021/08/05 13:39:01;;;;;;;8.25;5.65;;;;;;;;;;4939405;29;20031;-82
2021/08/05 13:41:27;;;;;;;2.63;1.90;;;;;;;;;;4934958;29;20024;-81
2021/08/05 13:43:52;;;;;;;5.72;1.70;;;;;;;;;;4934033;29;20086;-82
2021/08/05 13:46:18;;;;;;;2.42;1.48;;;;;;;;;;4937187;29;20038;-82
2021/08/05 13:48:45;;;;;;;3.30;1.67;;;;;;;;;;4938608;29;20024;-82
2021/08/05 13:51:10;;;;;;;2.35;1.55;;;;;;;;;;4938017;29;20548;-81
2021/08/05 13:53:36;;;;;;;1.60;1.13;;;;;;;;;;4942932;29;20063;-82
2021/08/05 13:56:03;;;;;;;2.55;1.15;;;;;;;;;;4942438;28;20308;-83
2021/08/05 13:58:28;;;;;;;1.48;1.08;;;;;;;;;;4939985;29;20062;-84
2021/08/05 14:00:54;;;;;;;2.05;1.30;;;;;;;;;;4941720;28;20595;-83
2021/08/05 14:03:20;;;;;;;3.47;1.60;;;;;;;;;;4938336;29;20031;-83
2021/08/05 14:05:45;;;;;;;4.10;1.80;;;;;;;;;;4943728;29;20048;-84
2021/08/05 14:08:10;;;;;;;6.75;2.10;;;;;;;;;;4937397;29;20290;-83
2021/08/05 14:10:36;;;;;;;2.22;1.60;;;;;;;;;;4937370;29;20102;-83
2021/08/05 14:13:01;;;;;;;2.88;1.40;;;;;;;;;;4936217;29;20471;-83
2021/08/05 14:15:26;;;;;;;4.30;1.70;;;;;;;;;;4935932;29;20206;-85
2021/08/05 14:17:52;;;;;;;2.70;1.90;;;;;;;;;;4933603;29;20482;-84
2021/08/05 14:20:17;;;;;;;4.30;1.93;;;;;;;;;;4930072;29;20027;-84
2021/08/05 14:22:43;;;;;;;4.20;1.90;;;;;;;;;;4926041;29;21982;-83
2021/08/05 14:25:09;;;;;;;2.72;1.60;;;;;;;;;;4935737;28;20432;-82
2021/08/05 14:27:35;;;;;;;3.53;1.88;;;;;;;;;;4928894;29;20351;-85
2021/08/05 14:30:00;;;;;;;6.38;4.10;;;;;;;;;;4933146;28;20031;-84
2021/08/05 14:32:26;;;;;;;16.23;12.30;;;;;;;;;;4931836;29;20090;-85
2021/08/05 14:34:51;;;;;;;3.53;2.70;;;;;;;;;;4933176;29;20090;-84
2021/08/05 14:37:16;;;;;;;4.27;2.10;;;;;;;;;;4943660;29;20023;-85
2021/08/05 14:39:41;;;;;;;2.78;1.50;;;;;;;;;;4930559;29;20026;-84
2021/08/05 14:42:07;;;;;;;3.23;1.63;;;;;;;;;;4928727;29;20119;-85